Last 24 Hours

Coyote Canyon

10 Minute Data | America/Los_Angeles
as of 5/8/26 10:57 PM PDT
Date & Time Temp (°F) Dew Pt (°F) RH (%) Wind Spd (mph) Wind Dir (°) Wind Gust (mph) Wind Gst Dir (°) Daily Max Temp (°F) Daily Min Temp (°F)
5/8/26 - 2250 61.4 44.4 53 17.7 WNW | 299 22.7 WNW | 302 81.4 60.8
5/8/26 - 2240 61.5 45.0 55 17.7 WNW | 298 21.1 WNW | 294 81.4 60.8
5/8/26 - 2230 61.6 45.4 55 17.6 WNW | 296 21.8 WNW | 288 81.4 60.8
5/8/26 - 2220 61.6 45.9 56 18.1 WNW | 299 22.7 WNW | 302 81.4 60.8
5/8/26 - 2210 61.7 46.2 57 17.9 WNW | 296 22.6 WNW | 300 81.4 60.8
5/8/26 - 2200 61.9 46.2 56 17.1 WNW | 299 21.2 WNW | 293 81.4 60.8
5/8/26 - 2150 61.8 45.5 55 17.2 WNW | 302 21.7 NW | 305 81.4 60.8
5/8/26 - 2140 62.0 45.0 54 16.8 WNW | 302 22.9 WNW | 286 81.4 60.8
5/8/26 - 2130 62.3 44.3 52 17.3 WNW | 300 22.8 WNW | 294 81.4 60.8
5/8/26 - 2120 62.3 44.0 51 16.4 NW | 305 23.1 WNW | 298 81.4 60.8
5/8/26 - 2110 62.4 43.6 50 15.5 WNW | 298 21.6 WNW | 302 81.4 60.8
5/8/26 - 2100 62.8 43.6 49 15.7 WSW | 244 20.7 WNW | 299 81.4 60.8
5/8/26 - 2050 63.0 43.3 48 15.2 SSE | 158 20.6 NW | 308 81.4 60.8
5/8/26 - 2040 63.5 43.5 48 14.5 S | 174 18.8 SSE | 162 81.4 60.8
5/8/26 - 2030 64.0 43.4 47 13.9 SSE | 165 17.4 SSE | 164 81.4 60.8
5/8/26 - 2020 65.0 42.6 44 14.5 SSE | 167 18.8 S | 170 81.4 60.8
5/8/26 - 2010 65.4 40.5 40 13.5 SSE | 164 17.5 SSE | 163 81.4 60.8
5/8/26 - 2000 66.4 38.9 36 13.3 SSE | 159 16.8 SSE | 154 81.4 60.8
5/8/26 - 1950 67.5 39.6 36 14.3 SSE | 156 19.7 SSE | 160 81.4 60.8
5/8/26 - 1940 68.6 39.3 34 14.3 SSE | 157 19.6 SSE | 160 81.4 60.8
5/8/26 - 1930 69.6 38.0 31 15.0 SSE | 158 19.6 SSE | 156 81.4 60.8
5/8/26 - 1920 70.8 37.4 30 16.3 SSE | 156 22.8 SSE | 149 81.4 60.8
5/8/26 - 1910 71.7 37.3 28 16.2 SSE | 152 22.4 SSE | 158 81.4 60.8
5/8/26 - 1900 72.5 40.1 31 15.6 SSE | 149 23.2 SSE | 152 81.4 60.8
5/8/26 - 1850 73.2 40.5 31 14.5 SE | 142 20.0 SE | 143 81.4 60.8
5/8/26 - 1840 73.9 37.7 27 16.6 SE | 133 24.6 SE | 128 81.4 60.8
5/8/26 - 1830 74.6 37.5 26 15.9 SE | 124 25.4 ESE | 107 81.4 60.8
5/8/26 - 1820 74.7 37.8 26 17.8 E | 95 23.2 ESE | 122 81.4 60.8
5/8/26 - 1810 75.0 36.8 25 19.7 ENE | 63 27.2 W | 266 81.4 60.8
5/8/26 - 1800 75.6 39.1 27 16.6 E | 83 27.2 E | 79 81.4 60.8
5/8/26 - 1750 75.5 39.7 27 18.8 WSW | 253 25.8 W | 267 81.4 60.8
5/8/26 - 1740 75.9 38.2 26 20.0 W | 260 25.7 WSW | 251 81.4 60.8
5/8/26 - 1730 76.2 38.0 25 19.3 W | 265 27.2 W | 275 81.4 60.8
5/8/26 - 1720 76.8 35.8 23 19.5 WSW | 258 26.1 W | 265 81.4 60.8
5/8/26 - 1710 77.4 34.4 21 18.0 WSW | 256 27.1 W | 268 81.4 60.8
5/8/26 - 1700 77.1 34.6 21 19.7 W | 271 28.1 W | 273 81.4 60.8
5/8/26 - 1650 77.8 35.9 22 17.7 W | 274 25.3 W | 268 81.4 60.8
5/8/26 - 1640 77.6 35.2 22 18.2 W | 277 26.4 W | 278 81.4 60.8
5/8/26 - 1630 78.0 34.5 21 17.8 W | 273 26.3 W | 266 81.4 60.8
5/8/26 - 1620 78.3 33.7 20 17.2 W | 280 25.5 W | 272 81.4 60.8
5/8/26 - 1610 78.4 33.5 20 17.4 W | 268 24.6 W | 277 81.4 60.8
5/8/26 - 1600 78.7 34.5 20 17.6 W | 262 26.8 WNW | 290 81.4 60.8
5/8/26 - 1550 79.4 35.7 21 17.5 W | 276 26.2 W | 268 81.4 60.8
5/8/26 - 1540 79.2 35.8 21 18.1 W | 278 28.3 WNW | 282 81.4 60.8
5/8/26 - 1530 79.1 35.0 20 16.5 W | 260 26.0 W | 263 81.4 60.8
5/8/26 - 1520 79.1 34.6 20 17.6 W | 279 23.9 WNW | 287 81.4 60.8
5/8/26 - 1510 79.4 36.0 21 17.9 W | 276 27.2 WSW | 257 81.4 60.8
5/8/26 - 1500 79.3 37.4 22 16.7 W | 268 24.5 W | 278 81.4 60.8
5/8/26 - 1450 80.2 36.1 20 14.9 W | 268 22.6 WSW | 251 81.4 60.8
5/8/26 - 1440 80.3 35.9 20 14.9 W | 265 26.4 W | 263 81.4 60.8
5/8/26 - 1430 78.9 34.8 20 16.9 W | 264 24.9 W | 265 80.7 60.8
5/8/26 - 1420 79.7 37.6 22 17.6 W | 270 25.4 W | 261 80.7 60.8
5/8/26 - 1410 79.0 35.8 21 14.9 WSW | 249 25.7 WSW | 245 80.4 60.8
5/8/26 - 1400 78.8 35.7 21 16.5 W | 268 27.2 WSW | 249 80.4 60.8
5/8/26 - 1350 78.8 35.5 21 16.1 W | 277 28.8 W | 261 80.4 60.8
5/8/26 - 1340 79.1 36.6 22 17.9 W | 280 27.2 W | 274 80.4 60.8
5/8/26 - 1330 78.4 34.3 20 17.4 W | 281 25.3 W | 277 80.1 60.8
5/8/26 - 1320 78.8 33.0 19 18.0 W | 281 26.8 W | 279 80.1 60.8
5/8/26 - 1310 78.4 32.5 19 18.4 WNW | 286 28.1 WNW | 286 80.1 60.8
5/8/26 - 1300 78.6 32.4 19 18.1 WNW | 282 29.3 W | 274 80.1 60.8
5/8/26 - 1250 78.8 29.9 17 19.0 W | 274 27.7 WNW | 284 80.1 60.8
5/8/26 - 1240 78.4 30.5 17 17.9 W | 274 26.9 WSW | 258 80.0 60.8
5/8/26 - 1230 78.5 28.6 16 18.9 WNW | 285 28.4 W | 273 80.0 60.8
5/8/26 - 1220 79.0 28.4 16 17.7 W | 276 26.5 W | 269 80.0 60.8
5/8/26 - 1210 79.5 28.6 15 17.0 W | 272 24.6 WSW | 257 80.0 60.8
5/8/26 - 1200 78.5 28.7 16 17.2 W | 269 28.2 NW | 305 79.3 60.8
5/8/26 - 1150 78.4 26.9 15 18.4 W | 274 27.9 W | 277 79.2 60.8
5/8/26 - 1140 78.6 28.4 16 18.3 W | 261 28.6 W | 279 79.2 60.8
5/8/26 - 1130 78.2 29.0 16 19.2 W | 264 29.3 W | 269 79.2 60.8
5/8/26 - 1120 78.3 29.5 17 17.0 W | 262 25.6 W | 268 79.0 60.8
5/8/26 - 1110 77.6 32.7 19 17.4 W | 273 27.4 WSW | 240 78.6 60.8
5/8/26 - 1100 77.8 32.0 19 17.3 W | 263 25.9 W | 266 78.6 60.8
5/8/26 - 1050 77.6 33.2 20 17.9 W | 263 25.6 W | 260 78.5 60.8
5/8/26 - 1040 77.1 35.7 22 17.0 W | 274 24.6 W | 270 77.5 60.8
5/8/26 - 1030 77.0 34.9 22 16.8 W | 276 29.2 WSW | 252 77.5 60.8
5/8/26 - 1020 76.4 34.9 22 18.9 W | 281 26.4 W | 278 77.5 60.8
5/8/26 - 1010 76.8 35.1 22 17.0 W | 280 24.3 W | 277 77.5 60.8
5/8/26 - 1000 76.2 35.0 22 17.3 W | 278 25.3 W | 278 76.8 60.8
5/8/26 - 0950 75.8 34.2 22 17.5 WNW | 287 27.8 WNW | 285 76.8 60.8
5/8/26 - 0940 76.0 33.4 21 17.9 WNW | 282 28.4 WNW | 287 76.8 60.8
5/8/26 - 0930 75.5 31.1 20 20.4 WNW | 299 28.4 WNW | 293 76.0 60.8
5/8/26 - 0920 75.0 31.9 21 20.5 WNW | 295 29.3 WNW | 286 75.8 60.8
5/8/26 - 0910 74.2 33.9 23 19.7 WNW | 292 27.7 WNW | 282 74.7 60.8
5/8/26 - 0900 73.6 35.1 24 19.4 WNW | 293 26.8 WNW | 287 74.1 60.8
5/8/26 - 0850 72.8 38.0 28 17.4 WNW | 294 26.1 WNW | 284 73.4 60.8
5/8/26 - 0840 71.6 39.1 31 17.1 WNW | 296 22.2 WNW | 294 72.5 60.8
5/8/26 - 0830 70.8 40.1 33 15.8 WNW | 295 22.2 WNW | 295 71.0 60.8
5/8/26 - 0820 69.7 40.0 34 17.2 WNW | 298 22.6 WNW | 293 70.1 60.8
5/8/26 - 0810 68.9 40.8 36 17.4 WNW | 298 22.6 NW | 304 69.4 60.8
5/8/26 - 0800 68.3 41.3 37 16.8 WNW | 300 22.6 WNW | 297 68.6 60.8
5/8/26 - 0750 67.6 41.3 38 17.8 WNW | 303 23.7 WNW | 296 67.9 60.8
5/8/26 - 0740 66.9 41.7 40 18.2 NW | 304 24.4 WNW | 299 67.3 60.8
5/8/26 - 0730 66.4 42.0 41 17.9 NW | 304 22.8 WNW | 301 66.6 60.8
5/8/26 - 0720 65.9 42.1 42 19.8 NW | 304 24.1 WNW | 295 66.2 60.8
5/8/26 - 0710 65.2 42.4 43 18.2 WNW | 300 25.1 WNW | 302 65.6 60.8
5/8/26 - 0700 64.3 42.4 45 18.2 WNW | 300 23.0 WNW | 297 64.8 60.8
5/8/26 - 0650 63.8 42.2 45 18.7 WNW | 300 24.6 WNW | 297 64.0 60.8
5/8/26 - 0640 62.9 42.0 46 19.6 WNW | 303 23.2 WNW | 297 63.5 60.8
5/8/26 - 0630 62.6 42.0 47 19.2 NW | 304 22.9 WNW | 302 63.5 60.8
5/8/26 - 0620 62.3 42.0 47 18.9 NW | 304 22.7 NW | 305 63.5 60.8
5/8/26 - 0610 62.4 42.1 47 18.4 NW | 304 22.3 WNW | 302 63.5 60.8
5/8/26 - 0600 61.6 42.2 49 17.4 NW | 304 21.6 NW | 306 63.5 60.8
5/8/26 - 0550 61.4 42.3 49 16.5 WNW | 301 20.2 WNW | 297 63.5 60.8
5/8/26 - 0540 61.8 42.1 48 16.3 WNW | 299 20.8 WNW | 302 63.5 60.8
5/8/26 - 0530 62.2 42.2 48 16.6 WNW | 301 20.4 WNW | 296 63.5 60.8
5/8/26 - 0520 63.0 42.4 47 17.5 WNW | 303 21.4 WNW | 300 63.5 60.8
5/8/26 - 0510 63.1 42.7 47 18.5 NW | 308 22.6 NW | 306 63.5 60.8
5/8/26 - 0500 62.8 42.9 48 19.0 NW | 309 23.0 NW | 305 63.5 60.8
5/8/26 - 0450 62.4 42.9 49 19.7 NW | 306 23.0 NW | 308 63.5 60.8
5/8/26 - 0440 62.4 43.0 49 19.2 NW | 305 22.2 WNW | 297 63.5 60.8
5/8/26 - 0430 62.5 43.0 49 19.5 NW | 305 23.8 WNW | 296 63.5 60.8
5/8/26 - 0420 62.1 42.8 49 19.2 NW | 304 22.8 WNW | 303 63.5 60.8
5/8/26 - 0410 62.3 42.7 49 18.1 WNW | 303 22.2 NW | 307 63.5 60.8
5/8/26 - 0400 62.7 42.4 47 19.7 NW | 306 23.3 NW | 306 63.5 60.8
5/8/26 - 0350 62.8 42.3 47 19.9 NW | 304 22.9 NW | 308 63.5 60.8
5/8/26 - 0340 62.9 41.8 46 19.9 NW | 304 24.6 NW | 312 63.5 60.8
5/8/26 - 0330 62.8 41.8 46 20.6 NW | 305 23.6 WNW | 301 63.5 60.8
5/8/26 - 0320 62.9 42.0 46 20.3 WNW | 302 24.6 WNW | 300 63.5 60.8
5/8/26 - 0310 63.0 41.9 46 20.1 WNW | 301 24.5 WNW | 301 63.5 60.8
5/8/26 - 0300 61.6 41.8 48 17.9 WNW | 298 22.8 WNW | 303 63.2 60.8
5/8/26 - 0250 61.4 42.0 49 18.0 WNW | 297 23.2 WNW | 298 63.2 60.8
5/8/26 - 0240 61.3 42.4 50 17.3 WNW | 296 21.3 WNW | 290 63.2 60.8
5/8/26 - 0230 61.0 42.4 50 17.5 WNW | 297 22.0 WNW | 300 63.2 60.8
5/8/26 - 0220 61.2 42.0 49 17.9 WNW | 295 22.7 WNW | 294 63.2 61.1
5/8/26 - 0210 61.8 42.1 48 16.4 WNW | 297 21.3 WNW | 301 63.2 61.1
5/8/26 - 0200 62.7 42.6 48 18.0 WNW | 299 23.2 WNW | 297 63.2 61.6
5/8/26 - 0150 62.9 42.9 48 19.9 WNW | 302 24.1 WNW | 298 63.2 61.6
5/8/26 - 0140 62.4 42.6 48 18.9 WNW | 300 23.8 WNW | 294 62.9 61.6
5/8/26 - 0130 61.8 42.3 49 16.3 WNW | 299 20.5 WNW | 300 62.4 61.6
5/8/26 - 0120 62.1 42.6 49 16.2 WNW | 300 22.4 WNW | 297 62.4 61.6
5/8/26 - 0110 62.1 44.2 52 18.6 WNW | 301 24.2 WNW | 297 62.4 61.6
5/8/26 - 0100 61.6 44.8 54 17.3 WNW | 296 23.0 WNW | 300 81.3 53.7
5/8/26 - 0050 62.0 43.7 51 16.5 WNW | 295 21.5 WNW | 294 81.3 53.7
5/8/26 - 0040 61.8 45.6 55 17.8 WNW | 301 22.8 WNW | 301 81.3 53.7
5/8/26 - 0030 61.7 45.8 56 16.5 WNW | 298 21.6 NW | 304 81.3 53.7
5/8/26 - 0020 61.9 45.4 55 17.5 WNW | 298 22.1 WNW | 296 81.3 53.7
5/8/26 - 0010 61.8 45.5 55 16.6 WNW | 292 20.0 WNW | 291 81.3 53.7
5/8/26 - 0000 62.4 45.3 53 15.3 WNW | 298 21.0 WNW | 296 81.3 53.7
5/7/26 - 2350 62.6 45.2 53 17.7 WNW | 302 22.0 NW | 304 81.3 53.7
5/7/26 - 2340 62.8 45.0 52 17.4 WNW | 301 22.4 NW | 304 81.3 53.7
5/7/26 - 2330 62.7 44.8 52 17.6 WNW | 302 23.2 WNW | 296 81.3 53.7
5/7/26 - 2320 62.6 44.6 52 15.8 WNW | 300 20.8 WNW | 294 81.3 53.7
5/7/26 - 2310 62.8 44.4 51 16.0 WNW | 299 21.0 WNW | 298 81.3 53.7
5/7/26 - 2300 63.1 43.6 49 17.2 WNW | 302 24.1 WNW | 294 81.3 53.7
5/7/26 - 2250 63.3 42.4 46 18.6 WNW | 302 24.0 WNW | 290 81.3 53.7
Max 80.3 46.2 57 20.6 - 29.3 - 81.4 61.6
Avg 69.5 39.2 36 17.5 - 24.0 - - -
Min 61.0 26.9 15 13.3 - 16.8 - 62.4 53.7